Atlantic City, NJ

2:10 AM EDT on August 31, 2016 (GMT -0400)
APRSWXNET | | Change Station
Active Advisory: Beach Hazard Statement

Elev 9 ft 39.40 °N, 74.47 °W | Updated 38 minutes ago

Mostly Cloudy
Mostly Cloudy
75 °F
Feels Like 73 °F
N
0
Wind Variable Wind from SE
Gusts 0.0 mph

Today
High -- | Low -- °F
--% Chance of Precip.
Yesterday
High -- | Low -- °F
Precip. -- in
Pressure 30.04 in
Visibility 2.0 miles
Clouds Mostly Cloudy 400 ft
Mostly Cloudy 1800 ft
Heat Index 73 °F
Dew Point 73 °F
Humidity 95%
Rainfall in
Snow Depth Not available.
6:25 AM 7:29 PM
Waning Crescent, 1% visible
SPECI KACY 310558Z 00000KT 2SM BR BKN004 BKN018 20/19 A3004 RMK AO2 VIS 1 1/4V4 T02000189
Pressure 30.04 in
Visibility 2.0 miles
Clouds Mostly Cloudy 400 ft
Mostly Cloudy 1800 ft
Heat Index 73 °F
Dew Point 73 °F
Humidity 95%
Rainfall in
Snow Depth Not available.
6:25 AM 7:29 PM
Waning Crescent, 1% visible
SPECI KACY 310558Z 00000KT 2SM BR BKN004 BKN018 20/19 A3004 RMK AO2 VIS 1 1/4V4 T02000189

10-Day Weather Forecast

Almanac

Astronomy

Aug. 31, 2016 Rise Set
Actual Time
Civil Twilight
Nautical Twilight
Astronomical Twilight
Moon
Length of Visible Light
Length of Day
Tomorrow will be .
, % of the Moon is Illuminated

Today's Extremes

State Highs State Lows

Community

WunderPhotos

Upload Photos

1,936,040 photos uploaded!

WunderBlog® & News

Nearby

Air Quality

  Air Quality AQ Index Pollutant
Not available.

Snow Depth

Station Depth Elevation

Earthquake Activity

City Distance Mag. Time & Date
Minimum magnitude displayed is 2.5.

Coastal Water Temperatures

Place Temperature

Stations

Nearby Weather Stations

Station Location Temp. Windchill Dew Point Humidity Wind Precip. Elev Updated Type
                   

Watches & Warnings

Beach Hazard Statement
Issued: 8:37 PM EDT Aug. 30, 2016 – National Weather Service

... Beach hazards statement remains in effect through Wednesday
evening...

Through Wednesday... there remains a moderate risk for the
formation of dangerous rip currents as long period swells
continue to roll in. This is resulting in rough surf conditions.

The large breakers in the beach swimming zone can knock swimmers
and waders into the sand... causing injury.

It is strongly advised to swim only in designated areas watched
by lifeguards. Swimming after the lifeguards go home or where
lifeguards do not have you in sight raises the risk of injury or
death due to rip currents. Some beaches however may no longer
have lifeguards on duty now that it is late in the season.

Precautionary/preparedness actions...

A beach hazards statement is issued when threats such as rip
currents... longshore currents... sneaker waves and other hazards
create life-threatening conditions in the surf zone. Caution
should be used when in or near the water.


Mps/gorse